地図

経路データ

SID SEASON NUMBER BASIN SUBBASIN NAME ISO_TIME NATURE LAT LON WMO_WIND WMO_PRES WMO_AGENCY TRACK_TYPE DIST2LAND LANDFALL IFLAG USA_AGENCY USA_ATCF_ID USA_LAT USA_LON USA_RECORD USA_STATUS USA_WIND USA_PRES USA_SSHS USA_R34_NE USA_R34_SE USA_R34_SW USA_R34_NW USA_R50_NE USA_R50_SE USA_R50_SW USA_R50_NW USA_R64_NE USA_R64_SE USA_R64_SW USA_R64_NW USA_POCI USA_ROCI USA_RMW USA_EYE TOKYO_LAT TOKYO_LON TOKYO_GRADE TOKYO_WIND TOKYO_PRES TOKYO_R50_DIR TOKYO_R50_LONG TOKYO_R50_SHORT TOKYO_R30_DIR TOKYO_R30_LONG TOKYO_R30_SHORT TOKYO_LAND CMA_LAT CMA_LON CMA_CAT CMA_WIND CMA_PRES HKO_LAT HKO_LON HKO_CAT HKO_WIND HKO_PRES NEWDELHI_LAT NEWDELHI_LON NEWDELHI_GRADE NEWDELHI_WIND NEWDELHI_PRES NEWDELHI_CI NEWDELHI_DP NEWDELHI_POCI REUNION_LAT REUNION_LON REUNION_TYPE REUNION_WIND REUNION_PRES REUNION_TNUM REUNION_CI REUNION_RMW REUNION_R34_NE REUNION_R34_SE REUNION_R34_SW REUNION_R34_NW REUNION_R50_NE REUNION_R50_SE REUNION_R50_SW REUNION_R50_NW REUNION_R64_NE REUNION_R64_SE REUNION_R64_SW REUNION_R64_NW BOM_LAT BOM_LON BOM_TYPE BOM_WIND BOM_PRES BOM_TNUM BOM_CI BOM_RMW BOM_R34_NE BOM_R34_SE BOM_R34_SW BOM_R34_NW BOM_R50_NE BOM_R50_SE BOM_R50_SW BOM_R50_NW BOM_R64_NE BOM_R64_SE BOM_R64_SW BOM_R64_NW BOM_ROCI BOM_POCI BOM_EYE BOM_POS_METHOD BOM_PRES_METHOD NADI_LAT NADI_LON NADI_CAT NADI_WIND NADI_PRES WELLINGTON_LAT WELLINGTON_LON WELLINGTON_WIND WELLINGTON_PRES DS824_LAT DS824_LON DS824_STAGE DS824_WIND DS824_PRES TD9636_LAT TD9636_LON TD9636_STAGE TD9636_WIND TD9636_PRES TD9635_LAT TD9635_LON TD9635_WIND TD9635_PRES TD9635_ROCI NEUMANN_LAT NEUMANN_LON NEUMANN_CLASS NEUMANN_WIND NEUMANN_PRES MLC_LAT MLC_LON MLC_CLASS MLC_WIND MLC_PRES USA_GUST BOM_GUST BOM_GUST_PER REUNION_GUST REUNION_GUST_PER USA_SEAHGT USA_SEARAD_NE USA_SEARAD_SE USA_SEARAD_SW USA_SEARAD_NW STORM_SPEED STORM_DIR
2003249N14329 2003 71 NA NA ISABEL 2003-09-06 00:00:00 TS 13.8000 -31.4000 30 1009 hurdat_atl main 1501 1501 O_____________ hurdat_atl AL132003 13.8000 -31.4000 TD 30 1009 -1 1012 150 40 13 278
2003249N14329 2003 71 NA NA ISABEL 2003-09-06 03:00:00 TS 13.8928 -32.0547 main 1576 1576 P_____________ AL132003 13.8928 -32.0547 TD 32 1007 -1 1012 150 40 13 275
2003249N14329 2003 71 NA NA ISABEL 2003-09-06 06:00:00 TS 13.9000 -32.7000 35 1005 hurdat_atl main 1640 1640 O_____________ hurdat_atl AL132003 13.9000 -32.7000 TS 35 1005 0 1012 150 40 12 264
2003249N14329 2003 71 NA NA ISABEL 2003-09-06 09:00:00 TS 13.7724 -33.3227 main 1706 1706 P_____________ AL132003 13.7724 -33.3227 TS 37 1004 0 1012 150 32 12 256
2003249N14329 2003 71 NA NA ISABEL 2003-09-06 12:00:00 TS 13.6000 -33.9000 40 1003 hurdat_atl main 1773 1773 O_____________ hurdat_atl AL132003 13.6000 -33.9000 TS 40 1003 0 75 75 25 75 1012 150 25 11 254
2003249N14329 2003 71 NA NA ISABEL 2003-09-06 15:00:00 TS 13.4698 -34.4225 main 1828 1828 P_____________ AL132003 13.4698 -34.4225 TS 42 1001 0 75 75 25 75 1012 150 25 10 258
2003249N14329 2003 71 NA NA ISABEL 2003-09-06 18:00:00 TS 13.4000 -34.9000 45 1000 hurdat_atl main 1883 1883 O_____________ hurdat_atl AL132003 13.4000 -34.9000 TS 45 1000 0 75 75 25 75 1012 150 25 9 266
2003249N14329 2003 71 NA NA ISABEL 2003-09-06 21:00:00 TS 13.4050 -35.3725 main 1889 1884 P_____________ AL132003 13.4050 -35.3725 TS 50 997 0 75 75 50 75 1012 150 25 9 277
2003249N14329 2003 71 NA NA ISABEL 2003-09-07 00:00:00 TS 13.5000 -35.8000 55 994 hurdat_atl main 1889 1887 O_____________ hurdat_atl AL132003 13.5000 -35.8000 TS 55 994 0 75 75 75 75 1012 150 25 8 289
2003249N14329 2003 71 NA NA ISABEL 2003-09-07 03:00:00 TS 13.6698 -36.1575 main 1901 1899 P_____________ AL132003 13.6698 -36.1575 TS 57 992 0 75 75 75 75 1012 185 25 8 300
2003249N14329 2003 71 NA NA ISABEL 2003-09-07 06:00:00 TS 13.9000 -36.5000 60 991 hurdat_atl main 1917 1915 O_____________ hurdat_atl AL132003 13.9000 -36.5000 TS 60 991 0 75 75 75 75 1012 220 25 8 303
2003249N14329 2003 71 NA NA ISABEL 2003-09-07 09:00:00 TS 14.1198 -36.8628 main 1923 1906 P_____________ AL132003 14.1198 -36.8628 TS 62 989 0 77 77 77 77 1012 220 25 9 303
2003249N14329 2003 71 NA NA ISABEL 2003-09-07 12:00:00 TS 14.4000 -37.3000 65 987 hurdat_atl main 1906 1883 O_____________ hurdat_atl AL132003 14.4000 -37.3000 HU 65 987 1 80 80 80 80 1012 220 25 12 305
2003249N14329 2003 71 NA NA ISABEL 2003-09-07 15:00:00 TS 14.7926 -37.8698 main 1881 1858 P_____________ AL132003 14.7926 -37.8698 HU 67 985 1 80 80 80 80 1012 220 25 14 305
2003249N14329 2003 71 NA NA ISABEL 2003-09-07 18:00:00 TS 15.2000 -38.5000 70 984 hurdat_atl main 1858 1831 O_____________ hurdat_atl AL132003 15.2000 -38.5000 HU 70 984 1 80 80 80 80 1012 220 25 14 301
2003249N14329 2003 71 NA NA ISABEL 2003-09-07 21:00:00 TS 15.5073 -39.1004 main 1831 1807 P_____________ AL132003 15.5073 -39.1004 HU 75 980 1 80 80 80 80 1012 220 25 13 297
2003249N14329 2003 71 NA NA ISABEL 2003-09-08 00:00:00 TS 15.8000 -39.7000 80 976 hurdat_atl main 1807 1786 O_____________ hurdat_atl AL132003 15.8000 -39.7000 HU 80 976 1 80 80 80 80 1012 220 25 13 299
2003249N14329 2003 71 NA NA ISABEL 2003-09-08 03:00:00 TS 16.1499 -40.3075 main 1786 1775 P_____________ AL132003 16.1499 -40.3075 HU 87 971 2 85 85 85 85 1012 220 25 14 301
2003249N14329 2003 71 NA NA ISABEL 2003-09-08 06:00:00 TS 16.5000 -40.9000 95 966 hurdat_atl main 1776 1764 O_____________ hurdat_atl AL132003 16.5000 -40.9000 HU 95 966 2 90 90 90 90 1012 220 25 13 301
2003249N14329 2003 71 NA NA ISABEL 2003-09-08 09:00:00 TS 16.8148 -41.4577 main 1761 1753 P_____________ AL132003 16.8148 -41.4577 HU 102 959 3 90 90 90 90 1012 220 25 12 300
2003249N14329 2003 71 NA NA ISABEL 2003-09-08 12:00:00 TS 17.1000 -42.0000 110 952 hurdat_atl main 1756 1743 O_____________ hurdat_atl AL132003 17.1000 -42.0000 HU 110 952 3 90 90 90 90 1012 220 25 12 297
2003249N14329 2003 71 NA NA ISABEL 2003-09-08 15:00:00 TS 17.3499 -42.5577 main 1737 1728 P_____________ AL132003 17.3499 -42.5577 HU 110 952 3 105 95 95 105 1012 220 25 12 295
2003249N14329 2003 71 NA NA ISABEL 2003-09-08 18:00:00 TS 17.6000 -43.1000 110 952 hurdat_atl main 1731 1720 O_____________ hurdat_atl AL132003 17.6000 -43.1000 HU 110 952 3 120 100 100 120 1012 220 25 11 298
2003249N14329 2003 71 NA NA ISABEL 2003-09-08 21:00:00 TS 17.8848 -43.6002 main 1726 1720 P_____________ AL132003 17.8848 -43.6002 HU 112 950 3 120 100 87 120 1012 210 25 11 302
2003249N14329 2003 71 NA NA ISABEL 2003-09-09 00:00:00 TS 18.2000 -44.1000 115 948 hurdat_atl main 1724 1718 O_____________ hurdat_atl AL132003 18.2000 -44.1000 HU 115 948 4 120 100 75 120 1012 200 25 12 304
2003249N14329 2003 71 NA NA ISABEL 2003-09-09 03:00:00 TS 18.5574 -44.6425 main 1733 1723 P_____________ AL132003 18.5574 -44.6425 HU 115 948 4 135 100 75 135 1012 200 25 13 304
2003249N14329 2003 71 NA NA ISABEL 2003-09-09 06:00:00 TS 18.9000 -45.2000 115 948 hurdat_atl main 1731 1726 O_____________ hurdat_atl AL132003 18.9000 -45.2000 HU 115 948 4 150 100 75 150 1012 200 25 12 300
2003249N14329 2003 71 NA NA ISABEL 2003-09-09 09:00:00 TS 19.1574 -45.7578 main 1731 1722 P_____________ AL132003 19.1574 -45.7578 HU 115 948 4 150 100 75 150 1012 200 25 12 296
2003249N14329 2003 71 NA NA ISABEL 2003-09-09 12:00:00 TS 19.4000 -46.3000 115 948 hurdat_atl main 1728 1724 O_____________ hurdat_atl AL132003 19.4000 -46.3000 HU 115 948 4 150 100 75 150 1012 200 25 11 299
2003249N14329 2003 71 NA NA ISABEL 2003-09-09 15:00:00 TS 19.6998 -46.8076 main 1738 1734 P_____________ AL132003 19.6998 -46.8076 HU 115 948 4 150 100 75 150 1012 200 25 11 303
2003249N14329 2003 71 NA NA ISABEL 2003-09-09 18:00:00 TS 20.0000 -47.3000 115 948 hurdat_atl main 1746 1741 O_____________ hurdat_atl AL132003 20.0000 -47.3000 HU 115 948 4 150 100 75 150 1012 200 25 11 301
2003249N14329 2003 71 NA NA ISABEL 2003-09-09 21:00:00 TS 20.2648 -47.7927 main 1754 1745 P_____________ AL132003 20.2648 -47.7927 HU 112 950 3 150 100 87 150 1012 210 25 11 298
2003249N14329 2003 71 NA NA ISABEL 2003-09-10 00:00:00 TS 20.5000 -48.3000 110 952 hurdat_atl main 1745 1718 O_____________ hurdat_atl AL132003 20.5000 -48.3000 HU 110 952 3 150 100 100 150 1012 220 25 11 295
2003249N14329 2003 71 NA NA ISABEL 2003-09-10 03:00:00 TS 20.7225 -48.8500 main 1718 1685 P_____________ AL132003 20.7225 -48.8500 HU 110 952 3 150 100 100 150 1012 220 25 11 291
2003249N14329 2003 71 NA NA ISABEL 2003-09-10 06:00:00 TS 20.9000 -49.4000 110 952 hurdat_atl main 1685 1653 O_____________ hurdat_atl AL132003 20.9000 -49.4000 HU 110 952 3 150 100 100 150 1012 220 25 10 287
2003249N14329 2003 71 NA NA ISABEL 2003-09-10 09:00:00 TS 21.0298 -49.9076 main 1653 1618 P_____________ AL132003 21.0298 -49.9076 HU 112 950 3 155 110 100 155 1012 220 25 10 282
2003249N14329 2003 71 NA NA ISABEL 2003-09-10 12:00:00 TS 21.1000 -50.4000 115 948 hurdat_atl main 1618 1567 O_____________ hurdat_atl AL132003 21.1000 -50.4000 HU 115 948 4 160 120 100 160 1012 220 25 9 275
2003249N14329 2003 71 NA NA ISABEL 2003-09-10 15:00:00 TS 21.1074 -50.9077 main 1567 1515 P_____________ AL132003 21.1074 -50.9077 HU 117 945 4 160 120 110 160 1012 220 25 9 270
2003249N14329 2003 71 NA NA ISABEL 2003-09-10 18:00:00 TS 21.1000 -51.4000 120 942 hurdat_atl main 1515 1474 O_____________ hurdat_atl AL132003 21.1000 -51.4000 HU 120 942 4 160 120 120 160 1012 220 25 9 272
2003249N14329 2003 71 NA NA ISABEL 2003-09-10 21:00:00 TS 21.1423 -51.8575 main 1464 1425 P_____________ AL132003 21.1423 -51.8575 HU 122 938 4 160 120 110 140 1012 222 22 8 277
2003249N14329 2003 71 NA NA ISABEL 2003-09-11 00:00:00 TS 21.2000 -52.3000 125 935 hurdat_atl main 1425 1384 O_____________ hurdat_atl AL132003 21.2000 -52.3000 HU 125 935 4 160 120 100 120 1012 225 20 8 277
2003249N14329 2003 71 NA NA ISABEL 2003-09-11 03:00:00 TS 21.2499 -52.7575 main 1374 1336 P_____________ AL132003 21.2499 -52.7575 HU 125 935 4 160 120 100 120 1012 225 20 8 277
2003249N14329 2003 71 NA NA ISABEL 2003-09-11 06:00:00 TS 21.3000 -53.2000 125 935 hurdat_atl main 1336 1295 O_____________ hurdat_atl AL132003 21.3000 -53.2000 HU 125 935 4 160 120 100 120 1012 225 20 8 277
2003249N14329 2003 71 NA NA ISABEL 2003-09-11 09:00:00 TS 21.3498 -53.6075 main 1295 1257 P_____________ AL132003 21.3498 -53.6075 HU 130 930 4 160 120 100 120 1011 225 20 8 278
2003249N14329 2003 71 NA NA ISABEL 2003-09-11 12:00:00 TS 21.4000 -54.0000 135 925 hurdat_atl main 1257 1217 O_____________ hurdat_atl AL132003 21.4000 -54.0000 HU 135 925 4 160 120 100 120 1010 225 20 7 278
2003249N14329 2003 71 NA NA ISABEL 2003-09-11 15:00:00 TS 21.4499 -54.3925 main 1217 1180 P_____________ AL132003 21.4499 -54.3925 HU 140 920 5 160 120 100 130 1010 225 20 8 278
2003249N14329 2003 71 NA NA ISABEL 2003-09-11 18:00:00 TS 21.5000 -54.8000 145 915 hurdat_atl main 1180 1140 O_____________ hurdat_atl AL132003 21.5000 -54.8000 HU 145 915 5 160 120 100 140 1010 225 20 8 277
2003249N14329 2003 71 NA NA ISABEL 2003-09-11 21:00:00 TS 21.5499 -55.2425 main 1140 1094 P_____________ AL132003 21.5499 -55.2425 HU 142 917 5 160 120 100 140 1010 225 20 8 277
2003249N14329 2003 71 NA NA ISABEL 2003-09-12 00:00:00 TS 21.6000 -55.7000 140 920 hurdat_atl main 1094 1058 O_____________ hurdat_atl AL132003 21.6000 -55.7000 HU 140 920 5 160 120 100 140 1010 225 20 9 278
2003249N14329 2003 71 NA NA ISABEL 2003-09-12 03:00:00 TS 21.6649 -56.1574 main 1048 1009 P_____________ AL132003 21.6649 -56.1574 HU 140 920 5 160 120 100 140 1010 225 20 8 277
2003249N14329 2003 71 NA NA ISABEL 2003-09-12 06:00:00 TS 21.7000 -56.6000 140 920 hurdat_atl main 1009 970 O_____________ hurdat_atl AL132003 21.7000 -56.6000 HU 140 920 5 160 120 100 140 1010 225 20 8 269
2003249N14329 2003 71 NA NA ISABEL 2003-09-12 09:00:00 TS 21.6498 -57.0077 main 966 928 P_____________ AL132003 21.6498 -57.0077 HU 140 920 5 160 120 100 140 1011 232 22 8 262
2003249N14329 2003 71 NA NA ISABEL 2003-09-12 12:00:00 TS 21.6000 -57.4000 140 920 hurdat_atl main 928 889 O_____________ hurdat_atl AL132003 21.6000 -57.4000 HU 140 920 5 160 120 100 140 1013 240 25 7 269
2003249N14329 2003 71 NA NA ISABEL 2003-09-12 15:00:00 TS 21.6348 -57.7924 main 889 856 P_____________ AL132003 21.6348 -57.7924 HU 140 920 5 160 120 102 140 1013 240 20 8 278
2003249N14329 2003 71 NA NA ISABEL 2003-09-12 18:00:00 TS 21.7000 -58.2000 140 920 hurdat_atl main 856 818 O_____________ hurdat_atl AL132003 21.7000 -58.2000 HU 140 920 5 160 120 105 140 1013 240 15 8 278
2003249N14329 2003 71 NA NA ISABEL 2003-09-12 21:00:00 TS 21.7499 -58.6350 main 818 777 P_____________ AL132003 21.7499 -58.6350 HU 137 922 5 160 120 105 140 1013 240 15 8 277
2003249N14329 2003 71 NA NA ISABEL 2003-09-13 00:00:00 TS 21.8000 -59.1000 135 925 hurdat_atl main 777 732 O_____________ hurdat_atl AL132003 21.8000 -59.1000 HU 135 925 4 160 120 105 140 1013 240 15 9 276
2003249N14329 2003 71 NA NA ISABEL 2003-09-13 03:00:00 TS 21.8425 -59.6001 main 732 694 P_____________ AL132003 21.8425 -59.6001 HU 132 930 4 150 120 105 140 1013 240 15 9 276
2003249N14329 2003 71 NA NA ISABEL 2003-09-13 06:00:00 TS 21.9000 -60.1000 130 935 hurdat_atl main 694 667 O_____________ hurdat_atl AL132003 21.9000 -60.1000 HU 130 935 4 140 120 105 140 1013 240 15 9 279
2003249N14329 2003 71 NA NA ISABEL 2003-09-13 09:00:00 TS 21.9772 -60.5427 main 667 633 P_____________ AL132003 21.9772 -60.5427 HU 132 935 4 145 125 107 140 1013 240 17 9 283
2003249N14329 2003 71 NA NA ISABEL 2003-09-13 12:00:00 TS 22.1000 -61.0000 135 935 hurdat_atl main 633 610 O_____________ hurdat_atl AL132003 22.1000 -61.0000 HU 135 935 4 150 130 110 140 1013 240 20 10 289
2003249N14329 2003 71 NA NA ISABEL 2003-09-13 15:00:00 TS 22.2849 -61.5275 main 610 585 P_____________ AL132003 22.2849 -61.5275 HU 137 933 5 150 130 110 140 1013 240 20 11 291
2003249N14329 2003 71 NA NA ISABEL 2003-09-13 18:00:00 TS 22.5000 -62.1000 140 932 hurdat_atl main 585 567 O_____________ hurdat_atl AL132003 22.5000 -62.1000 HU 140 932 5 150 130 110 140 1013 240 20 12 292
2003249N14329 2003 71 NA NA ISABEL 2003-09-13 21:00:00 TS 22.7073 -62.6851 main 567 556 P_____________ AL132003 22.7073 -62.6851 HU 137 933 5 150 140 120 145 1013 240 22 12 290
2003249N14329 2003 71 NA NA ISABEL 2003-09-14 00:00:00 TS 22.9000 -63.3000 135 935 hurdat_atl main 557 543 O_____________ hurdat_atl AL132003 22.9000 -63.3000 HU 135 935 4 150 150 130 150 1013 240 25 12 287
2003249N14329 2003 71 NA NA ISABEL 2003-09-14 03:00:00 TS 23.0574 -63.9502 main 551 540 P_____________ AL132003 23.0574 -63.9502 HU 135 937 4 162 162 152 150 1013 240 25 12 284
2003249N14329 2003 71 NA NA ISABEL 2003-09-14 06:00:00 TS 23.2000 -64.6000 135 939 hurdat_atl main 546 543 O_____________ hurdat_atl AL132003 23.2000 -64.6000 HU 135 939 4 175 175 175 150 1013 240 25 12 284
2003249N14329 2003 71 NA NA ISABEL 2003-09-14 09:00:00 TS 23.3422 -65.2078 main 549 549 P_____________ AL132003 23.3422 -65.2078 HU 135 937 4 175 175 175 150 1013 240 25 11 285
2003249N14329 2003 71 NA NA ISABEL 2003-09-14 12:00:00 TS 23.5000 -65.8000 135 935 hurdat_atl main 570 570 O_____________ hurdat_atl AL132003 23.5000 -65.8000 HU 135 935 4 175 175 175 150 1013 240 25 12 287
2003249N14329 2003 71 NA NA ISABEL 2003-09-14 15:00:00 TS 23.6925 -66.4225 main 576 565 P_____________ AL132003 23.6925 -66.4225 HU 137 934 5 175 175 175 150 1013 240 25 12 290
2003249N14329 2003 71 NA NA ISABEL 2003-09-14 18:00:00 TS 23.9000 -67.0000 140 933 hurdat_atl main 566 562 O_____________ hurdat_atl AL132003 23.9000 -67.0000 HU 140 933 5 175 175 175 150 1013 240 25 10 294
2003249N14329 2003 71 NA NA ISABEL 2003-09-14 21:00:00 TS 24.1146 -67.4726 main 565 562 P_____________ AL132003 24.1146 -67.4726 HU 135 935 4 177 177 177 165 1013 240 25 9 296
2003249N14329 2003 71 NA NA ISABEL 2003-09-15 00:00:00 TS 24.3000 -67.9000 130 937 hurdat_atl main 568 560 O_____________ hurdat_atl AL132003 24.3000 -67.9000 HU 130 937 4 180 180 180 180 1013 240 25 9 290
2003249N14329 2003 71 NA NA ISABEL 2003-09-15 03:00:00 TS 24.4075 -68.3727 main 561 553 P_____________ AL132003 24.4075 -68.3727 HU 127 938 4 180 180 180 180 1012 240 30 8 284
2003249N14329 2003 71 NA NA ISABEL 2003-09-15 06:00:00 TS 24.5000 -68.8000 125 940 hurdat_atl main 557 551 O_____________ hurdat_atl AL132003 24.5000 -68.8000 HU 125 940 4 180 180 180 180 1011 240 35 7 288
2003249N14329 2003 71 NA NA ISABEL 2003-09-15 09:00:00 TS 24.6274 -69.1376 main 551 543 P_____________ AL132003 24.6274 -69.1376 HU 122 943 4 180 180 180 180 1011 240 32 6 299
2003249N14329 2003 71 NA NA ISABEL 2003-09-15 12:00:00 TS 24.8000 -69.4000 120 946 hurdat_atl main 545 538 O_____________ hurdat_atl AL132003 24.8000 -69.4000 HU 120 946 4 180 180 180 180 1011 240 30 6 314
2003249N14329 2003 71 NA NA ISABEL 2003-09-15 15:00:00 TS 25.0424 -69.6150 main 548 548 P_____________ AL132003 25.0424 -69.6150 HU 117 947 4 180 180 160 160 1011 240 30 6 324
2003249N14329 2003 71 NA NA ISABEL 2003-09-15 18:00:00 TS 25.3000 -69.8000 115 949 hurdat_atl main 562 560 O_____________ hurdat_atl AL132003 25.3000 -69.8000 HU 115 949 4 180 180 140 140 1011 240 30 6 322
2003249N14329 2003 71 NA NA ISABEL 2003-09-15 21:00:00 TS 25.4925 -70.0076 main 569 564 P_____________ AL132003 25.4925 -70.0076 HU 110 950 3 177 165 145 145 1011 257 30 5 318
2003249N14329 2003 71 NA NA ISABEL 2003-09-16 00:00:00 TS 25.7000 -70.2000 105 952 hurdat_atl main 578 578 O_____________ hurdat_atl AL132003 25.7000 -70.2000 HU 105 952 3 175 150 150 150 1011 275 30 6 328
2003249N14329 2003 71 NA NA ISABEL 2003-09-16 03:00:00 TS 25.9924 -70.3501 main 598 598 P_____________ AL132003 25.9924 -70.3501 HU 102 953 3 175 150 150 150 1010 275 35 7 336
2003249N14329 2003 71 NA NA ISABEL 2003-09-16 06:00:00 TS 26.3000 -70.5000 100 955 hurdat_atl main 624 624 O_____________ hurdat_atl AL132003 26.3000 -70.5000 HU 100 955 3 175 150 150 150 1010 275 40 6 331
2003249N14329 2003 71 NA NA ISABEL 2003-09-16 09:00:00 TS 26.5500 -70.7001 main 647 643 P_____________ AL132003 26.5500 -70.7001 HU 97 957 3 187 175 125 150 1010 287 45 6 324
2003249N14329 2003 71 NA NA ISABEL 2003-09-16 12:00:00 TS 26.8000 -70.9000 95 959 hurdat_atl main 661 661 O_____________ hurdat_atl AL132003 26.8000 -70.9000 HU 95 959 2 200 200 100 150 1010 300 50 6 329
2003249N14329 2003 71 NA NA ISABEL 2003-09-16 15:00:00 TS 27.0850 -71.0576 main 686 686 P_____________ AL132003 27.0850 -71.0576 HU 95 959 2 220 200 110 165 1010 300 52 7 336
2003249N14329 2003 71 NA NA ISABEL 2003-09-16 18:00:00 TS 27.4000 -71.2000 95 959 hurdat_atl main 716 716 O_____________ hurdat_atl AL132003 27.4000 -71.2000 HU 95 959 2 240 200 120 180 1010 300 55 7 339
2003249N14329 2003 71 NA NA ISABEL 2003-09-16 21:00:00 TS 27.7350 -71.3427 main 727 722 P_____________ AL132003 27.7350 -71.3427 HU 95 958 2 240 200 135 190 1010 300 55 8 339
2003249N14329 2003 71 NA NA ISABEL 2003-09-17 00:00:00 TS 28.1000 -71.5000 95 957 hurdat_atl main 727 723 O_____________ hurdat_atl AL132003 28.1000 -71.5000 HU 95 957 2 240 200 150 200 1010 300 55 8 339
2003249N14329 2003 71 NA NA ISABEL 2003-09-17 03:00:00 TS 28.4924 -71.6777 main 730 730 P_____________ AL132003 28.4924 -71.6777 HU 95 957 2 232 200 162 200 1010 300 55 9 336
2003249N14329 2003 71 NA NA ISABEL 2003-09-17 06:00:00 TS 28.9000 -71.9000 95 957 hurdat_atl main 737 725 O_____________ hurdat_atl AL132003 28.9000 -71.9000 HU 95 957 2 225 200 175 200 1010 300 55 9 331
2003249N14329 2003 71 NA NA ISABEL 2003-09-17 09:00:00 TS 29.2926 -72.1925 main 725 672 P_____________ AL132003 29.2926 -72.1925 HU 92 957 2 225 200 175 200 1010 300 55 10 327
2003249N14329 2003 71 NA NA ISABEL 2003-09-17 12:00:00 TS 29.7000 -72.5000 90 957 hurdat_atl main 672 624 O_____________ hurdat_atl AL132003 29.7000 -72.5000 HU 90 957 2 225 200 175 200 1010 300 55 10 330
2003249N14329 2003 71 NA NA ISABEL 2003-09-17 15:00:00 TS 30.1424 -72.7578 main 619 562 P_____________ AL132003 30.1424 -72.7578 HU 90 956 2 250 225 162 200 1010 300 47 10 334
2003249N14329 2003 71 NA NA ISABEL 2003-09-17 18:00:00 TS 30.6000 -73.0000 90 955 hurdat_atl main 562 514 O_____________ hurdat_atl AL132003 30.6000 -73.0000 HU 90 955 2 275 250 150 200 1010 300 40 10 336
2003249N14329 2003 71 NA NA ISABEL 2003-09-17 21:00:00 TS 31.0423 -73.2281 main 514 452 P_____________ AL132003 31.0423 -73.2281 HU 90 954 2 275 250 150 200 1010 300 40 10 335
2003249N14329 2003 71 NA NA ISABEL 2003-09-18 00:00:00 TS 31.5000 -73.5000 90 953 hurdat_atl main 452 400 O_____________ hurdat_atl AL132003 31.5000 -73.5000 HU 90 953 2 275 250 150 200 1010 300 40 11 330
2003249N14329 2003 71 NA NA ISABEL 2003-09-18 03:00:00 TS 31.9775 -73.8704 main 385 318 P_____________ AL132003 31.9775 -73.8704 HU 90 954 2 287 250 150 200 1010 300 42 12 326
2003249N14329 2003 71 NA NA ISABEL 2003-09-18 06:00:00 TS 32.5000 -74.3000 90 956 hurdat_atl main 318 251 O_____________ hurdat_atl AL132003 32.5000 -74.3000 HU 90 956 2 300 250 150 200 1010 300 45 13 327
2003249N14329 2003 71 NA NA ISABEL 2003-09-18 09:00:00 TS 33.0653 -74.7190 main 243 163 P_____________ AL132003 33.0653 -74.7190 HU 90 956 2 300 250 150 225 1010 300 45 14 328
2003249N14329 2003 71 NA NA ISABEL 2003-09-18 12:00:00 TS 33.7000 -75.2000 90 956 hurdat_atl main 163 72 O_____________ hurdat_atl AL132003 33.7000 -75.2000 HU 90 956 2 300 250 150 250 1010 300 45 16 327
2003249N14329 2003 71 NA NA ISABEL 2003-09-18 15:00:00 TS 34.4395 -75.7887 main 72 9 P_____________ AL132003 34.4395 -75.7887 HU 90 956 2 300 225 175 225 1010 300 45 18 325
2003249N14329 2003 71 NA NA ISABEL 2003-09-18 17:00:00 TS 34.9000 -76.2000 90 957 hurdat_atl main 9 9 V_____________ hurdat_atl AL132003 34.9000 -76.2000 L HU 90 957 2 300 208 191 208 1010 300 45 17 323
2003249N14329 2003 71 NA NA ISABEL 2003-09-18 18:00:00 TS 35.1000 -76.4000 85 958 hurdat_atl main 14 0 O_____________ hurdat_atl AL132003 35.1000 -76.4000 HU 85 958 2 300 200 200 200 1010 300 45 17 323
2003249N14329 2003 71 NA NA ISABEL 2003-09-18 21:00:00 TS 35.8281 -77.0428 main 0 0 P_____________ AL132003 35.8281 -77.0428 HU 75 963 1 300 200 150 150 1010 300 45 19 327
2003249N14329 2003 71 NA NA ISABEL 2003-09-19 00:00:00 TS 36.7000 -77.7000 65 969 hurdat_atl main 0 0 O_____________ hurdat_atl AL132003 36.7000 -77.7000 HU 65 969 1 300 200 100 100 1010 300 45 20 330
2003249N14329 2003 71 NA NA ISABEL 2003-09-19 03:00:00 TS 37.5969 -78.2952 main 0 0 P_____________ AL132003 37.5969 -78.2952 HU 57 978 0 300 200 80 80 1010 300 52 21 333
2003249N14329 2003 71 NA NA ISABEL 2003-09-19 06:00:00 TS 38.6000 -78.9000 50 988 hurdat_atl main 0 0 O_____________ hurdat_atl AL132003 38.6000 -78.9000 TS 50 988 0 300 200 60 60 1010 300 60 23 333
2003249N14329 2003 71 NA NA ISABEL 2003-09-19 09:00:00 TS 39.6683 -79.6437 main 0 0 P_____________ AL132003 39.6683 -79.6437 TS 42 992 0 250 250 1010 300 130 25 335
2003249N14329 2003 71 NA NA ISABEL 2003-09-19 12:00:00 ET 40.9000 -80.3000 35 997 hurdat_atl main 0 0 O_____________ hurdat_atl AL132003 40.9000 -80.3000 EX 35 997 -4 200 300 1010 300 200 27 343
2003249N14329 2003 71 NA NA ISABEL 2003-09-19 15:00:00 ET 42.2648 -80.6992 main 0 0 P_____________ AL132003 42.2648 -80.6992 EX 32 998 -4 30 352
2003249N14329 2003 71 NA NA ISABEL 2003-09-19 18:00:00 ET 43.9000 -80.9000 30 1000 hurdat_atl main 0 0 O_____________ hurdat_atl AL132003 43.9000 -80.9000 EX 30 1000 -4 36 357
2003249N14329 2003 71 NA NA ISABEL 2003-09-19 21:00:00 ET 45.8575 -80.9800 main 0 0 P_____________ AL132003 45.8575 -80.9800 EX 27 1000 -4 41 359
2003249N14329 2003 71 NA NA ISABEL 2003-09-20 00:00:00 ET 48.0000 -81.0000 25 1000 hurdat_atl main 0 O_____________ hurdat_atl AL132003 48.0000 -81.0000 EX 25 1000 -4 43 0

IBTrACS Databaseについて

本データベースは、米国NOAAが公開する1842年以降の世界の熱帯低気圧のベストトラックデータアーカイブInternational Best Track Archive for Climate Stewardship (IBTrACS)を、ウェブで閲覧しやすい形式に変換したものです。

最終更新日:2021-10-08